sensor_id;sensor_type;location;lat;lon;timestamp;temperature;humidity
47921;DHT22;33686;48.770;9.186;2022-07-29T04:17:37;19.50;99.90
47921;DHT22;33686;48.770;9.186;2022-07-29T04:20:03;19.40;99.90
47921;DHT22;33686;48.770;9.186;2022-07-29T04:22:29;19.10;99.90
47921;DHT22;33686;48.770;9.186;2022-07-29T04:24:54;18.90;99.90
47921;DHT22;33686;48.770;9.186;2022-07-29T04:27:20;18.90;99.90
47921;DHT22;33686;48.770;9.186;2022-07-29T04:29:46;19.00;99.90
47921;DHT22;33686;48.770;9.186;2022-07-29T04:32:11;18.90;99.90
47921;DHT22;33686;48.770;9.186;2022-07-29T04:34:37;19.10;99.90
47921;DHT22;33686;48.770;9.186;2022-07-29T04:37:02;19.20;99.90
47921;DHT22;33686;48.770;9.186;2022-07-29T04:39:28;19.30;99.90
47921;DHT22;33686;48.770;9.186;2022-07-29T04:41:53;19.10;99.90
47921;DHT22;33686;48.770;9.186;2022-07-29T04:44:19;19.00;99.90
47921;DHT22;33686;48.770;9.186;2022-07-29T04:46:45;19.00;99.90
47921;DHT22;33686;48.770;9.186;2022-07-29T04:49:10;19.20;99.90
47921;DHT22;33686;48.770;9.186;2022-07-29T04:51:36;19.30;99.90
47921;DHT22;33686;48.770;9.186;2022-07-29T04:54:01;19.20;99.90
47921;DHT22;33686;48.770;9.186;2022-07-29T04:56:27;19.30;99.90
47921;DHT22;33686;48.770;9.186;2022-07-29T04:58:52;19.50;99.90
47921;DHT22;33686;48.770;9.186;2022-07-29T05:01:18;19.50;99.90
47921;DHT22;33686;48.770;9.186;2022-07-29T05:03:44;19.60;99.90
47921;DHT22;33686;48.770;9.186;2022-07-29T05:06:10;20.20;99.90
47921;DHT22;33686;48.770;9.186;2022-07-29T05:08:36;20.70;99.90
47921;DHT22;33686;48.770;9.186;2022-07-29T05:11:02;21.10;99.90
47921;DHT22;33686;48.770;9.186;2022-07-29T05:13:27;21.80;99.90
47921;DHT22;33686;48.770;9.186;2022-07-29T05:15:53;22.50;99.90
47921;DHT22;33686;48.770;9.186;2022-07-29T05:18:18;23.40;99.90
47921;DHT22;33686;48.770;9.186;2022-07-29T05:20:44;24.20;99.90
47921;DHT22;33686;48.770;9.186;2022-07-29T05:23:10;24.80;99.90
47921;DHT22;33686;48.770;9.186;2022-07-29T05:25:38;24.80;99.90
47921;DHT22;33686;48.770;9.186;2022-07-29T05:28:03;24.50;99.90
47921;DHT22;33686;48.770;9.186;2022-07-29T05:30:29;24.40;99.90
47921;DHT22;33686;48.770;9.186;2022-07-29T05:32:54;24.30;99.90
47921;DHT22;33686;48.770;9.186;2022-07-29T05:35:20;23.90;99.90
47921;DHT22;33686;48.770;9.186;2022-07-29T05:37:46;24.50;99.90
47921;DHT22;33686;48.770;9.186;2022-07-29T05:40:11;25.30;99.90
47921;DHT22;33686;48.770;9.186;2022-07-29T05:42:37;25.90;99.90
47921;DHT22;33686;48.770;9.186;2022-07-29T05:45:02;26.00;99.90
47921;DHT22;33686;48.770;9.186;2022-07-29T05:47:28;26.30;99.90
47921;DHT22;33686;48.770;9.186;2022-07-29T05:49:53;26.40;99.90
47921;DHT22;33686;48.770;9.186;2022-07-29T05:52:19;26.70;99.90
47921;DHT22;33686;48.770;9.186;2022-07-29T05:54:45;26.50;99.90
47921;DHT22;33686;48.770;9.186;2022-07-29T05:57:20;26.80;99.90
47921;DHT22;33686;48.770;9.186;2022-07-29T05:59:46;27.00;99.90
47921;DHT22;33686;48.770;9.186;2022-07-29T06:02:12;27.20;99.60
47921;DHT22;33686;48.770;9.186;2022-07-29T06:04:37;27.60;99.10
47921;DHT22;33686;48.770;9.186;2022-07-29T06:07:03;27.50;99.10
47921;DHT22;33686;48.770;9.186;2022-07-29T06:09:29;27.70;99.00
47921;DHT22;33686;48.770;9.186;2022-07-29T06:11:54;27.70;99.10
47921;DHT22;33686;48.770;9.186;2022-07-29T06:14:20;28.70;97.70
47921;DHT22;33686;48.770;9.186;2022-07-29T06:16:46;28.50;97.30
47921;DHT22;33686;48.770;9.186;2022-07-29T06:19:11;29.50;96.20
47921;DHT22;33686;48.770;9.186;2022-07-29T06:21:41;29.10;96.40
47921;DHT22;33686;48.770;9.186;2022-07-29T06:24:06;29.50;96.20
47921;DHT22;33686;48.770;9.186;2022-07-29T06:26:32;29.30;96.10
47921;DHT22;33686;48.770;9.186;2022-07-29T06:28:58;29.40;96.40
47921;DHT22;33686;48.770;9.186;2022-07-29T06:31:24;30.60;95.30
47921;DHT22;33686;48.770;9.186;2022-07-29T06:33:49;31.10;93.90
47921;DHT22;33686;48.770;9.186;2022-07-29T06:36:15;30.50;94.10
47921;DHT22;33686;48.770;9.186;2022-07-29T06:38:40;30.10;94.60
47921;DHT22;33686;48.770;9.186;2022-07-29T06:41:07;30.40;94.40
47921;DHT22;33686;48.770;9.186;2022-07-29T06:43:37;30.60;94.10
47921;DHT22;33686;48.770;9.186;2022-07-29T06:46:04;31.10;93.50
47921;DHT22;33686;48.770;9.186;2022-07-29T06:48:30;30.40;93.60
47921;DHT22;33686;48.770;9.186;2022-07-29T06:50:56;30.50;93.80
47921;DHT22;33686;48.770;9.186;2022-07-29T06:53:22;30.50;93.70
47921;DHT22;33686;48.770;9.186;2022-07-29T06:55:47;29.50;94.50
47921;DHT22;33686;48.770;9.186;2022-07-29T06:58:13;29.00;95.40
47921;DHT22;33686;48.770;9.186;2022-07-29T07:00:41;29.20;95.30
47921;DHT22;33686;48.770;9.186;2022-07-29T07:03:07;29.40;95.40
47921;DHT22;33686;48.770;9.186;2022-07-29T07:05:32;30.30;94.50
47921;DHT22;33686;48.770;9.186;2022-07-29T07:07:58;30.90;93.90
47921;DHT22;33686;48.770;9.186;2022-07-29T07:10:23;30.90;93.60
47921;DHT22;33686;48.770;9.186;2022-07-29T07:12:49;31.40;93.10
47921;DHT22;33686;48.770;9.186;2022-07-29T07:15:14;31.60;93.00
47921;DHT22;33686;48.770;9.186;2022-07-29T07:17:40;30.70;93.60
47921;DHT22;33686;48.770;9.186;2022-07-29T07:20:05;30.80;93.70
47921;DHT22;33686;48.770;9.186;2022-07-29T07:22:31;31.10;93.50
47921;DHT22;33686;48.770;9.186;2022-07-29T07:24:57;30.60;93.30
47921;DHT22;33686;48.770;9.186;2022-07-29T07:27:22;29.80;94.50
47921;DHT22;33686;48.770;9.186;2022-07-29T07:29:48;30.40;93.90
47921;DHT22;33686;48.770;9.186;2022-07-29T07:32:13;29.10;95.20
47921;DHT22;33686;48.770;9.186;2022-07-29T07:34:42;28.50;95.70
47921;DHT22;33686;48.770;9.186;2022-07-29T07:37:09;28.90;95.70
47921;DHT22;33686;48.770;9.186;2022-07-29T07:39:35;28.00;96.40
47921;DHT22;33686;48.770;9.186;2022-07-29T07:42:00;27.80;97.10
47921;DHT22;33686;48.770;9.186;2022-07-29T07:44:26;28.50;96.60
47921;DHT22;33686;48.770;9.186;2022-07-29T07:46:52;28.80;96.40
47921;DHT22;33686;48.770;9.186;2022-07-29T07:49:18;29.80;95.40
47921;DHT22;33686;48.770;9.186;2022-07-29T07:51:43;30.30;94.50
47921;DHT22;33686;48.770;9.186;2022-07-29T07:54:09;30.60;94.30
47921;DHT22;33686;48.770;9.186;2022-07-29T07:56:34;30.90;93.50
47921;DHT22;33686;48.770;9.186;2022-07-29T07:59:00;30.50;94.00
47921;DHT22;33686;48.770;9.186;2022-07-29T08:01:25;30.50;93.90
47921;DHT22;33686;48.770;9.186;2022-07-29T08:03:51;30.30;93.80
47921;DHT22;33686;48.770;9.186;2022-07-29T08:06:16;30.60;93.50
47921;DHT22;33686;48.770;9.186;2022-07-29T08:08:42;30.80;93.30
47921;DHT22;33686;48.770;9.186;2022-07-29T08:11:08;30.70;93.30
47921;DHT22;33686;48.770;9.186;2022-07-29T08:13:33;31.30;93.10
47921;DHT22;33686;48.770;9.186;2022-07-29T08:15:59;31.70;92.50
47921;DHT22;33686;48.770;9.186;2022-07-29T08:18:27;31.60;92.20
47921;DHT22;33686;48.770;9.186;2022-07-29T08:20:53;31.70;92.20
47921;DHT22;33686;48.770;9.186;2022-07-29T08:23:19;31.30;91.80
47921;DHT22;33686;48.770;9.186;2022-07-29T08:25:44;30.10;93.10
47921;DHT22;33686;48.770;9.186;2022-07-29T08:28:10;30.50;92.60
47921;DHT22;33686;48.770;9.186;2022-07-29T08:30:35;30.40;92.50
47921;DHT22;33686;48.770;9.186;2022-07-29T08:33:01;30.30;92.50
47921;DHT22;33686;48.770;9.186;2022-07-29T08:35:27;30.40;92.90
47921;DHT22;33686;48.770;9.186;2022-07-29T08:37:53;30.20;93.00
47921;DHT22;33686;48.770;9.186;2022-07-29T08:40:19;30.60;92.90
47921;DHT22;33686;48.770;9.186;2022-07-29T08:42:46;30.10;92.80
47921;DHT22;33686;48.770;9.186;2022-07-29T08:45:11;30.00;93.30
47921;DHT22;33686;48.770;9.186;2022-07-29T08:47:38;29.60;93.80
47921;DHT22;33686;48.770;9.186;2022-07-29T08:50:05;29.10;93.70
47921;DHT22;33686;48.770;9.186;2022-07-29T08:52:33;29.20;94.50
47921;DHT22;33686;48.770;9.186;2022-07-29T08:54:59;29.30;94.10
47921;DHT22;33686;48.770;9.186;2022-07-29T08:57:25;29.60;94.30
47921;DHT22;33686;48.770;9.186;2022-07-29T08:59:51;30.50;93.40
47921;DHT22;33686;48.770;9.186;2022-07-29T09:02:20;30.60;93.10
47921;DHT22;33686;48.770;9.186;2022-07-29T09:04:46;31.50;92.10
47921;DHT22;33686;48.770;9.186;2022-07-29T09:07:15;30.70;92.20
47921;DHT22;33686;48.770;9.186;2022-07-29T09:09:41;30.60;91.50
47921;DHT22;33686;48.770;9.186;2022-07-29T09:12:08;31.00;91.40
47921;DHT22;33686;48.770;9.186;2022-07-29T09:14:34;31.30;90.40
47921;DHT22;33686;48.770;9.186;2022-07-29T09:16:59;31.50;90.00
47921;DHT22;33686;48.770;9.186;2022-07-29T09:19:29;31.90;89.50
47921;DHT22;33686;48.770;9.186;2022-07-29T09:21:55;32.30;88.60
47921;DHT22;33686;48.770;9.186;2022-07-29T09:26:52;32.50;87.60
47921;DHT22;33686;48.770;9.186;2022-07-29T09:29:19;32.70;87.30
47921;DHT22;33686;48.770;9.186;2022-07-29T09:31:45;32.30;87.80
47921;DHT22;33686;48.770;9.186;2022-07-29T09:34:11;32.20;88.60
47921;DHT22;33686;48.770;9.186;2022-07-29T09:36:41;30.90;89.80
47921;DHT22;33686;48.770;9.186;2022-07-29T09:39:07;31.00;90.30
47921;DHT22;33686;48.770;9.186;2022-07-29T09:41:45;31.70;89.90
47921;DHT22;33686;48.770;9.186;2022-07-29T09:44:11;31.90;88.60
47921;DHT22;33686;48.770;9.186;2022-07-29T09:46:36;32.40;88.10
47921;DHT22;33686;48.770;9.186;2022-07-29T09:49:12;32.20;89.00
47921;DHT22;33686;48.770;9.186;2022-07-29T09:51:38;32.80;86.20
47921;DHT22;33686;48.770;9.186;2022-07-29T09:56:48;33.10;86.00
47921;DHT22;33686;48.770;9.186;2022-07-29T09:59:14;32.30;86.90
47921;DHT22;33686;48.770;9.186;2022-07-29T10:01:40;31.30;88.10
47921;DHT22;33686;48.770;9.186;2022-07-29T10:04:05;30.60;89.10
47921;DHT22;33686;48.770;9.186;2022-07-29T10:06:31;30.80;89.70
47921;DHT22;33686;48.770;9.186;2022-07-29T10:09:09;31.50;88.20
47921;DHT22;33686;48.770;9.186;2022-07-29T10:11:35;30.70;89.30
47921;DHT22;33686;48.770;9.186;2022-07-29T10:14:01;30.00;89.90
47921;DHT22;33686;48.770;9.186;2022-07-29T10:16:27;29.40;90.70
47921;DHT22;33686;48.770;9.186;2022-07-29T10:19:00;29.00;90.80
47921;DHT22;33686;48.770;9.186;2022-07-29T10:21:26;29.20;91.00
47921;DHT22;33686;48.770;9.186;2022-07-29T10:23:52;29.50;90.40
47921;DHT22;33686;48.770;9.186;2022-07-29T10:26:19;29.20;90.60
47921;DHT22;33686;48.770;9.186;2022-07-29T10:28:44;28.20;91.60
47921;DHT22;33686;48.770;9.186;2022-07-29T10:31:12;28.60;91.30
47921;DHT22;33686;48.770;9.186;2022-07-29T10:33:44;28.50;91.40
47921;DHT22;33686;48.770;9.186;2022-07-29T10:38:44;27.40;92.60
47921;DHT22;33686;48.770;9.186;2022-07-29T10:46:23;26.40;95.10
47921;DHT22;33686;48.770;9.186;2022-07-29T10:54:18;26.20;97.80
47921;DHT22;33686;48.770;9.186;2022-07-29T10:56:44;25.90;99.90
47921;DHT22;33686;48.770;9.186;2022-07-29T11:01:45;24.70;99.90
47921;DHT22;33686;48.770;9.186;2022-07-29T11:04:11;24.50;99.90
47921;DHT22;33686;48.770;9.186;2022-07-29T11:09:21;22.90;99.90
47921;DHT22;33686;48.770;9.186;2022-07-29T11:11:47;21.70;99.90
47921;DHT22;33686;48.770;9.186;2022-07-29T11:14:14;20.40;99.90
47921;DHT22;33686;48.770;9.186;2022-07-29T11:16:57;20.10;99.90
47921;DHT22;33686;48.770;9.186;2022-07-29T11:19:23;19.90;99.90
47921;DHT22;33686;48.770;9.186;2022-07-29T11:21:49;19.30;99.90
47921;DHT22;33686;48.770;9.186;2022-07-29T11:24:21;19.40;99.90
47921;DHT22;33686;48.770;9.186;2022-07-29T11:27:08;19.40;99.90
47921;DHT22;33686;48.770;9.186;2022-07-29T11:29:34;19.30;99.90
47921;DHT22;33686;48.770;9.186;2022-07-29T11:32:11;19.50;99.90
47921;DHT22;33686;48.770;9.186;2022-07-29T11:34:37;19.70;99.90
47921;DHT22;33686;48.770;9.186;2022-07-29T11:39:41;19.00;99.90
47921;DHT22;33686;48.770;9.186;2022-07-29T11:44:55;19.10;99.90
47921;DHT22;33686;48.770;9.186;2022-07-29T11:47:24;19.20;99.90
47921;DHT22;33686;48.770;9.186;2022-07-29T11:49:50;19.00;99.90
47921;DHT22;33686;48.770;9.186;2022-07-29T11:52:17;19.10;99.90
47921;DHT22;33686;48.770;9.186;2022-07-29T11:54:42;19.70;99.90
47921;DHT22;33686;48.770;9.186;2022-07-29T11:57:08;20.10;99.90
47921;DHT22;33686;48.770;9.186;2022-07-29T11:59:44;20.30;99.90
47921;DHT22;33686;48.770;9.186;2022-07-29T12:02:10;20.60;99.90
47921;DHT22;33686;48.770;9.186;2022-07-29T12:07:34;20.70;99.90
47921;DHT22;33686;48.770;9.186;2022-07-29T12:09:59;20.00;99.90
47921;DHT22;33686;48.770;9.186;2022-07-29T12:12:25;19.80;99.90
47921;DHT22;33686;48.770;9.186;2022-07-29T12:14:51;19.50;99.90
47921;DHT22;33686;48.770;9.186;2022-07-29T12:17:27;19.60;99.90
47921;DHT22;33686;48.770;9.186;2022-07-29T12:19:53;19.40;99.90
47921;DHT22;33686;48.770;9.186;2022-07-29T12:22:25;19.70;99.90
47921;DHT22;33686;48.770;9.186;2022-07-29T12:24:51;19.70;99.90
47921;DHT22;33686;48.770;9.186;2022-07-29T12:27:17;19.90;99.90
47921;DHT22;33686;48.770;9.186;2022-07-29T12:29:42;20.20;99.90
47921;DHT22;33686;48.770;9.186;2022-07-29T12:32:08;20.40;99.90
47921;DHT22;33686;48.770;9.186;2022-07-29T12:34:34;20.80;99.90
47921;DHT22;33686;48.770;9.186;2022-07-29T12:37:00;20.80;99.90
47921;DHT22;33686;48.770;9.186;2022-07-29T12:39:26;20.90;99.90
47921;DHT22;33686;48.770;9.186;2022-07-29T12:41:53;20.90;99.90
47921;DHT22;33686;48.770;9.186;2022-07-29T12:44:18;21.00;99.90
47921;DHT22;33686;48.770;9.186;2022-07-29T12:46:44;20.50;99.90
47921;DHT22;33686;48.770;9.186;2022-07-29T12:49:20;20.30;99.90
47921;DHT22;33686;48.770;9.186;2022-07-29T12:51:46;20.10;99.90
47921;DHT22;33686;48.770;9.186;2022-07-29T12:54:12;20.10;99.90
47921;DHT22;33686;48.770;9.186;2022-07-29T12:56:42;20.30;99.90
47921;DHT22;33686;48.770;9.186;2022-07-29T13:01:38;20.40;99.90
47921;DHT22;33686;48.770;9.186;2022-07-29T13:04:03;20.60;99.90
47921;DHT22;33686;48.770;9.186;2022-07-29T13:06:36;20.60;99.90
47921;DHT22;33686;48.770;9.186;2022-07-29T13:09:10;20.20;99.90
47921;DHT22;33686;48.770;9.186;2022-07-29T13:14:05;20.50;99.90
47921;DHT22;33686;48.770;9.186;2022-07-29T13:16:31;20.70;99.90
47921;DHT22;33686;48.770;9.186;2022-07-29T13:19:12;21.00;99.90
47921;DHT22;33686;48.770;9.186;2022-07-29T13:21:38;21.20;99.90
47921;DHT22;33686;48.770;9.186;2022-07-29T13:24:05;21.30;99.90
47921;DHT22;33686;48.770;9.186;2022-07-29T13:26:31;21.20;99.90
47921;DHT22;33686;48.770;9.186;2022-07-29T13:28:57;20.90;99.90
47921;DHT22;33686;48.770;9.186;2022-07-29T13:31:23;21.00;99.90
47921;DHT22;33686;48.770;9.186;2022-07-29T13:33:49;21.00;99.90
47921;DHT22;33686;48.770;9.186;2022-07-29T13:36:15;21.20;99.90
47921;DHT22;33686;48.770;9.186;2022-07-29T13:38:40;21.30;99.90
47921;DHT22;33686;48.770;9.186;2022-07-29T13:41:06;21.20;99.90
47921;DHT22;33686;48.770;9.186;2022-07-29T13:43:31;20.50;99.90
47921;DHT22;33686;48.770;9.186;2022-07-29T13:45:57;20.10;99.90
47921;DHT22;33686;48.770;9.186;2022-07-29T13:48:22;19.60;99.90
47921;DHT22;33686;48.770;9.186;2022-07-29T13:50:48;19.60;99.90
47921;DHT22;33686;48.770;9.186;2022-07-29T13:53:13;19.70;99.90
47921;DHT22;33686;48.770;9.186;2022-07-29T13:55:39;20.00;99.90
47921;DHT22;33686;48.770;9.186;2022-07-29T13:58:05;20.30;99.90
47921;DHT22;33686;48.770;9.186;2022-07-29T14:00:30;20.50;99.90
47921;DHT22;33686;48.770;9.186;2022-07-29T14:02:56;20.70;99.90
47921;DHT22;33686;48.770;9.186;2022-07-29T14:05:22;20.80;99.90
47921;DHT22;33686;48.770;9.186;2022-07-29T14:07:47;21.00;99.90
47921;DHT22;33686;48.770;9.186;2022-07-29T14:10:13;21.10;99.90
47921;DHT22;33686;48.770;9.186;2022-07-29T14:12:39;21.10;99.90
47921;DHT22;33686;48.770;9.186;2022-07-29T14:15:07;21.70;99.90
47921;DHT22;33686;48.770;9.186;2022-07-29T14:17:33;22.10;99.90
47921;DHT22;33686;48.770;9.186;2022-07-29T14:19:58;22.40;99.90
47921;DHT22;33686;48.770;9.186;2022-07-29T14:22:24;22.50;99.90
47921;DHT22;33686;48.770;9.186;2022-07-29T14:24:50;22.60;99.90
47921;DHT22;33686;48.770;9.186;2022-07-29T14:27:16;22.70;99.90
47921;DHT22;33686;48.770;9.186;2022-07-29T14:29:41;22.80;99.90
47921;DHT22;33686;48.770;9.186;2022-07-29T14:32:08;22.60;99.90
47921;DHT22;33686;48.770;9.186;2022-07-29T14:34:34;22.50;99.90
47921;DHT22;33686;48.770;9.186;2022-07-29T14:37:00;22.60;99.90
47921;DHT22;33686;48.770;9.186;2022-07-29T14:39:26;22.30;99.90
47921;DHT22;33686;48.770;9.186;2022-07-29T14:41:51;22.20;99.90
47921;DHT22;33686;48.770;9.186;2022-07-29T14:44:17;22.20;99.90
47921;DHT22;33686;48.770;9.186;2022-07-29T14:46:43;22.20;99.90
47921;DHT22;33686;48.770;9.186;2022-07-29T14:49:09;22.40;99.90
47921;DHT22;33686;48.770;9.186;2022-07-29T14:51:34;22.50;99.90
47921;DHT22;33686;48.770;9.186;2022-07-29T14:54:00;22.60;99.90
47921;DHT22;33686;48.770;9.186;2022-07-29T14:56:25;22.30;99.90
47921;DHT22;33686;48.770;9.186;2022-07-29T14:58:52;22.30;99.90
47921;DHT22;33686;48.770;9.186;2022-07-29T15:01:17;22.50;99.90
47921;DHT22;33686;48.770;9.186;2022-07-29T15:03:43;22.60;99.90
47921;DHT22;33686;48.770;9.186;2022-07-29T15:06:08;22.60;99.90
47921;DHT22;33686;48.770;9.186;2022-07-29T15:08:34;22.60;99.90
47921;DHT22;33686;48.770;9.186;2022-07-29T15:11:00;22.70;99.90
47921;DHT22;33686;48.770;9.186;2022-07-29T15:13:26;22.50;99.90
47921;DHT22;33686;48.770;9.186;2022-07-29T15:15:51;22.60;99.90
47921;DHT22;33686;48.770;9.186;2022-07-29T15:18:17;22.70;99.90
47921;DHT22;33686;48.770;9.186;2022-07-29T15:20:43;22.50;99.90
47921;DHT22;33686;48.770;9.186;2022-07-29T15:23:11;22.50;99.90
47921;DHT22;33686;48.770;9.186;2022-07-29T15:25:37;22.50;99.90
47921;DHT22;33686;48.770;9.186;2022-07-29T15:28:03;22.60;99.90
47921;DHT22;33686;48.770;9.186;2022-07-29T15:30:32;22.50;99.90
47921;DHT22;33686;48.770;9.186;2022-07-29T15:32:58;22.70;99.90
47921;DHT22;33686;48.770;9.186;2022-07-29T15:35:24;22.70;99.90
47921;DHT22;33686;48.770;9.186;2022-07-29T15:37:49;22.90;99.90
47921;DHT22;33686;48.770;9.186;2022-07-29T15:40:15;22.70;99.90
47921;DHT22;33686;48.770;9.186;2022-07-29T15:42:40;22.90;99.90
47921;DHT22;33686;48.770;9.186;2022-07-29T15:45:06;23.00;99.90
47921;DHT22;33686;48.770;9.186;2022-07-29T15:47:33;23.30;99.90
47921;DHT22;33686;48.770;9.186;2022-07-29T15:49:59;23.20;99.90
47921;DHT22;33686;48.770;9.186;2022-07-29T15:52:25;23.10;99.90
47921;DHT22;33686;48.770;9.186;2022-07-29T15:54:51;23.10;99.90
47921;DHT22;33686;48.770;9.186;2022-07-29T15:57:16;23.00;99.90
47921;DHT22;33686;48.770;9.186;2022-07-29T15:59:42;23.00;99.90
47921;DHT22;33686;48.770;9.186;2022-07-29T16:02:07;23.00;99.90
47921;DHT22;33686;48.770;9.186;2022-07-29T16:04:33;23.10;99.90
47921;DHT22;33686;48.770;9.186;2022-07-29T16:06:58;23.20;99.90
47921;DHT22;33686;48.770;9.186;2022-07-29T16:09:24;23.10;99.90
47921;DHT22;33686;48.770;9.186;2022-07-29T16:11:50;23.20;99.90
47921;DHT22;33686;48.770;9.186;2022-07-29T16:14:17;23.20;99.90
47921;DHT22;33686;48.770;9.186;2022-07-29T16:16:43;23.20;99.90
47921;DHT22;33686;48.770;9.186;2022-07-29T16:19:09;23.30;99.90
47921;DHT22;33686;48.770;9.186;2022-07-29T16:21:35;23.40;99.90
47921;DHT22;33686;48.770;9.186;2022-07-29T16:24:01;23.60;99.90
47921;DHT22;33686;48.770;9.186;2022-07-29T16:26:27;23.60;99.90
47921;DHT22;33686;48.770;9.186;2022-07-29T16:28:53;23.50;99.90
47921;DHT22;33686;48.770;9.186;2022-07-29T16:31:18;23.20;99.90
47921;DHT22;33686;48.770;9.186;2022-07-29T16:33:50;23.30;99.90
47921;DHT22;33686;48.770;9.186;2022-07-29T16:36:16;23.40;99.90
47921;DHT22;33686;48.770;9.186;2022-07-29T16:38:41;23.60;99.90
47921;DHT22;33686;48.770;9.186;2022-07-29T16:41:07;23.60;99.90
47921;DHT22;33686;48.770;9.186;2022-07-29T16:43:32;23.70;99.90
47921;DHT22;33686;48.770;9.186;2022-07-29T16:45:58;23.80;99.90
47921;DHT22;33686;48.770;9.186;2022-07-29T16:48:23;23.90;99.90
47921;DHT22;33686;48.770;9.186;2022-07-29T16:50:49;23.90;99.90
47921;DHT22;33686;48.770;9.186;2022-07-29T16:53:15;23.90;99.90
47921;DHT22;33686;48.770;9.186;2022-07-29T16:55:40;23.90;99.90
47921;DHT22;33686;48.770;9.186;2022-07-29T16:58:06;23.90;99.90
47921;DHT22;33686;48.770;9.186;2022-07-29T17:00:31;23.80;99.90
47921;DHT22;33686;48.770;9.186;2022-07-29T17:02:57;23.80;99.90
47921;DHT22;33686;48.770;9.186;2022-07-29T17:05:24;23.80;99.90
47921;DHT22;33686;48.770;9.186;2022-07-29T17:07:50;23.90;99.90
47921;DHT22;33686;48.770;9.186;2022-07-29T17:10:15;23.90;99.90
47921;DHT22;33686;48.770;9.186;2022-07-29T17:12:41;23.70;99.90
47921;DHT22;33686;48.770;9.186;2022-07-29T17:15:08;23.50;99.90
47921;DHT22;33686;48.770;9.186;2022-07-29T17:17:34;23.40;99.90
47921;DHT22;33686;48.770;9.186;2022-07-29T17:20:00;23.50;99.90
47921;DHT22;33686;48.770;9.186;2022-07-29T17:22:26;23.60;99.90
47921;DHT22;33686;48.770;9.186;2022-07-29T17:24:52;23.60;99.90
47921;DHT22;33686;48.770;9.186;2022-07-29T17:27:17;23.60;99.90
47921;DHT22;33686;48.770;9.186;2022-07-29T17:29:43;23.60;99.90
47921;DHT22;33686;48.770;9.186;2022-07-29T17:32:09;23.40;99.90
47921;DHT22;33686;48.770;9.186;2022-07-29T17:34:35;23.30;99.90
47921;DHT22;33686;48.770;9.186;2022-07-29T17:37:01;23.20;99.90
47921;DHT22;33686;48.770;9.186;2022-07-29T17:39:27;23.00;99.90
47921;DHT22;33686;48.770;9.186;2022-07-29T17:41:52;23.10;99.90
47921;DHT22;33686;48.770;9.186;2022-07-29T17:44:18;23.20;99.90
47921;DHT22;33686;48.770;9.186;2022-07-29T17:46:44;23.50;99.90
47921;DHT22;33686;48.770;9.186;2022-07-29T17:49:09;23.40;99.90
47921;DHT22;33686;48.770;9.186;2022-07-29T17:51:35;23.20;99.90
47921;DHT22;33686;48.770;9.186;2022-07-29T17:54:00;23.20;99.90
47921;DHT22;33686;48.770;9.186;2022-07-29T17:56:26;23.30;99.90
47921;DHT22;33686;48.770;9.186;2022-07-29T17:58:51;23.30;99.90
47921;DHT22;33686;48.770;9.186;2022-07-29T18:01:17;23.40;99.90
47921;DHT22;33686;48.770;9.186;2022-07-29T18:03:43;23.50;99.90
47921;DHT22;33686;48.770;9.186;2022-07-29T18:06:09;23.50;99.90
47921;DHT22;33686;48.770;9.186;2022-07-29T18:08:37;23.30;99.90
47921;DHT22;33686;48.770;9.186;2022-07-29T18:11:03;23.20;99.90
47921;DHT22;33686;48.770;9.186;2022-07-29T18:13:29;23.40;99.90
47921;DHT22;33686;48.770;9.186;2022-07-29T18:15:55;23.40;99.90
47921;DHT22;33686;48.770;9.186;2022-07-29T18:18:20;23.60;99.90
47921;DHT22;33686;48.770;9.186;2022-07-29T18:20:46;23.50;99.90
47921;DHT22;33686;48.770;9.186;2022-07-29T18:23:12;23.30;99.90
47921;DHT22;33686;48.770;9.186;2022-07-29T18:25:37;23.10;99.90
47921;DHT22;33686;48.770;9.186;2022-07-29T18:28:03;23.10;99.90
47921;DHT22;33686;48.770;9.186;2022-07-29T18:30:29;23.00;99.90
47921;DHT22;33686;48.770;9.186;2022-07-29T18:32:55;22.90;99.90
47921;DHT22;33686;48.770;9.186;2022-07-29T18:35:21;22.60;99.90
47921;DHT22;33686;48.770;9.186;2022-07-29T18:37:46;22.70;99.90
47921;DHT22;33686;48.770;9.186;2022-07-29T18:40:12;22.60;99.90
47921;DHT22;33686;48.770;9.186;2022-07-29T18:42:37;22.40;99.90
47921;DHT22;33686;48.770;9.186;2022-07-29T18:45:05;22.40;99.90
47921;DHT22;33686;48.770;9.186;2022-07-29T18:47:31;22.30;99.90
47921;DHT22;33686;48.770;9.186;2022-07-29T18:49:57;22.00;99.90
47921;DHT22;33686;48.770;9.186;2022-07-29T18:52:22;21.70;99.90
47921;DHT22;33686;48.770;9.186;2022-07-29T18:54:48;21.50;99.90
47921;DHT22;33686;48.770;9.186;2022-07-29T18:57:13;21.40;99.90
47921;DHT22;33686;48.770;9.186;2022-07-29T18:59:39;21.40;99.90
47921;DHT22;33686;48.770;9.186;2022-07-29T19:02:04;21.40;99.90
47921;DHT22;33686;48.770;9.186;2022-07-29T19:04:30;21.40;99.90
47921;DHT22;33686;48.770;9.186;2022-07-29T19:06:55;21.40;99.90
47921;DHT22;33686;48.770;9.186;2022-07-29T19:09:23;21.20;99.90
47921;DHT22;33686;48.770;9.186;2022-07-29T19:11:48;21.10;99.90
47921;DHT22;33686;48.770;9.186;2022-07-29T19:14:14;21.20;99.90
47921;DHT22;33686;48.770;9.186;2022-07-29T19:16:40;21.10;99.90
47921;DHT22;33686;48.770;9.186;2022-07-29T19:19:05;21.00;99.90
47921;DHT22;33686;48.770;9.186;2022-07-29T19:21:31;21.00;99.90
47921;DHT22;33686;48.770;9.186;2022-07-29T19:23:57;20.80;99.90
47921;DHT22;33686;48.770;9.186;2022-07-29T19:26:22;20.70;99.90
47921;DHT22;33686;48.770;9.186;2022-07-29T19:28:48;20.70;99.90
47921;DHT22;33686;48.770;9.186;2022-07-29T19:31:13;20.80;99.90
47921;DHT22;33686;48.770;9.186;2022-07-29T19:33:39;20.70;99.90
47921;DHT22;33686;48.770;9.186;2022-07-29T19:36:05;20.60;99.90
47921;DHT22;33686;48.770;9.186;2022-07-29T19:38:30;20.70;99.90
47921;DHT22;33686;48.770;9.186;2022-07-29T19:40:56;20.70;99.90
47921;DHT22;33686;48.770;9.186;2022-07-29T19:43:22;20.80;99.90
47921;DHT22;33686;48.770;9.186;2022-07-29T19:45:47;20.90;99.90
47921;DHT22;33686;48.770;9.186;2022-07-29T19:48:13;20.90;99.90
47921;DHT22;33686;48.770;9.186;2022-07-29T19:50:38;21.00;99.90
47921;DHT22;33686;48.770;9.186;2022-07-29T19:53:04;21.00;99.90
47921;DHT22;33686;48.770;9.186;2022-07-29T19:55:30;21.00;99.90
47921;DHT22;33686;48.770;9.186;2022-07-29T19:57:55;21.10;99.90
47921;DHT22;33686;48.770;9.186;2022-07-29T20:00:23;21.10;99.90
47921;DHT22;33686;48.770;9.186;2022-07-29T20:02:50;21.00;99.90
47921;DHT22;33686;48.770;9.186;2022-07-29T20:05:15;21.00;99.90
47921;DHT22;33686;48.770;9.186;2022-07-29T20:07:41;21.00;99.90
47921;DHT22;33686;48.770;9.186;2022-07-29T20:10:07;21.00;99.90
47921;DHT22;33686;48.770;9.186;2022-07-29T20:12:33;20.90;99.90
47921;DHT22;33686;48.770;9.186;2022-07-29T20:15:00;20.90;99.90
47921;DHT22;33686;48.770;9.186;2022-07-29T20:17:25;20.80;99.90